Time;durP1;ratioP1;P1;durP2;ratioP2;P2;SDS_P1;SDS_P2;PMS_P1;PMS_P2;Temp;Humidity;BMP_temperature;BMP_pressure;BME280_temperature;BME280_humidity;BME280_pressure;Samples;Min_cycle;Max_cycle;Signal;HPM_P1;HPM_P2
2022/06/30 00:00:35;;;;;;;4.77;3.07;;;;;;;;;;5052805;28;20256;-90
2022/06/30 00:03:06;;;;;;;5.47;4.17;;;;;;;;;;5052962;28;20214;-89
2022/06/30 00:05:33;;;;;;;3.67;3.37;;;;;;;;;;5052810;28;20205;-89
2022/06/30 00:08:02;;;;;;;3.73;3.43;;;;;;;;;;5052733;28;20260;-89
2022/06/30 00:10:29;;;;;;;4.13;3.83;;;;;;;;;;5052714;28;20194;-89
2022/06/30 00:12:56;;;;;;;4.27;3.87;;;;;;;;;;5052789;28;20225;-89
2022/06/30 00:15:26;;;;;;;4.50;3.57;;;;;;;;;;5052709;28;20255;-89
2022/06/30 00:17:56;;;;;;;4.60;3.80;;;;;;;;;;5052533;28;20194;-89
2022/06/30 00:20:29;;;;;;;9.57;4.60;;;;;;;;;;5052638;28;20736;-89
2022/06/30 00:22:57;;;;;;;6.20;4.00;;;;;;;;;;5052675;28;20201;-89
2022/06/30 00:25:28;;;;;;;6.90;3.67;;;;;;;;;;5052748;28;20633;-89
2022/06/30 00:27:58;;;;;;;6.67;4.00;;;;;;;;;;5052518;28;20194;-89
2022/06/30 00:30:29;;;;;;;4.83;3.90;;;;;;;;;;5052492;28;20198;-89
2022/06/30 00:32:56;;;;;;;5.87;4.10;;;;;;;;;;5052454;28;20249;-89
2022/06/30 00:35:27;;;;;;;3.83;3.53;;;;;;;;;;5055290;28;20247;-89
2022/06/30 00:37:54;;;;;;;4.77;3.87;;;;;;;;;;5056964;28;20238;-89
2022/06/30 00:40:24;;;;;;;4.70;3.60;;;;;;;;;;5056890;28;20198;-89
2022/06/30 00:42:53;;;;;;;4.80;3.73;;;;;;;;;;5056368;28;20291;-90
2022/06/30 00:45:29;;;;;;;5.03;3.70;;;;;;;;;;5056649;28;20194;-89
2022/06/30 00:47:56;;;;;;;6.00;4.87;;;;;;;;;;5056890;28;20638;-89
2022/06/30 00:50:27;;;;;;;3.80;3.50;;;;;;;;;;5056381;28;20556;-90
2022/06/30 00:52:55;;;;;;;4.20;3.90;;;;;;;;;;5056342;28;20288;-89
2022/06/30 00:55:26;;;;;;;6.17;3.27;;;;;;;;;;5056487;28;20228;-90
2022/06/30 00:57:55;;;;;;;3.73;3.47;;;;;;;;;;5056446;28;20198;-89
2022/06/30 01:00:23;;;;;;;4.13;3.50;;;;;;;;;;5056124;28;20198;-90
2022/06/30 01:02:51;;;;;;;7.67;3.53;;;;;;;;;;5056452;28;20226;-90
2022/06/30 01:05:19;;;;;;;4.07;3.67;;;;;;;;;;5056275;28;20244;-90
2022/06/30 01:07:46;;;;;;;7.97;4.30;;;;;;;;;;5056338;28;20248;-89
2022/06/30 01:13:00;;;;;;;4.03;3.63;;;;;;;;;;5056200;28;20209;-90
2022/06/30 01:15:27;;;;;;;4.90;3.83;;;;;;;;;;5056049;28;20209;-90
2022/06/30 01:17:54;;;;;;;4.27;3.87;;;;;;;;;;5055666;28;20198;-89
2022/06/30 01:20:27;;;;;;;4.23;3.87;;;;;;;;;;5056155;28;20193;-90
2022/06/30 01:22:56;;;;;;;4.30;3.90;;;;;;;;;;5055706;28;20193;-89
2022/06/30 01:25:24;;;;;;;7.50;4.17;;;;;;;;;;5056122;28;20205;-90
2022/06/30 01:27:51;;;;;;;3.70;3.40;;;;;;;;;;5055708;28;20226;-89
2022/06/30 01:30:25;;;;;;;4.20;3.60;;;;;;;;;;5055732;28;20668;-89
2022/06/30 01:32:52;;;;;;;4.60;4.20;;;;;;;;;;5055799;28;20221;-90
2022/06/30 01:35:22;;;;;;;5.17;3.70;;;;;;;;;;5056151;28;20637;-90
2022/06/30 01:37:51;;;;;;;6.40;3.67;;;;;;;;;;5055603;28;20194;-89
2022/06/30 01:40:21;;;;;;;5.37;3.83;;;;;;;;;;5055654;28;20202;-89
2022/06/30 01:42:48;;;;;;;5.23;3.50;;;;;;;;;;5055189;28;20226;-89
2022/06/30 01:45:16;;;;;;;4.00;3.60;;;;;;;;;;5055131;28;20221;-90
2022/06/30 01:47:43;;;;;;;3.30;3.00;;;;;;;;;;5055219;28;20202;-91
2022/06/30 01:50:12;;;;;;;5.27;3.60;;;;;;;;;;5055059;28;20202;-90
2022/06/30 01:52:43;;;;;;;5.63;3.77;;;;;;;;;;5055241;28;20221;-90
2022/06/30 01:55:10;;;;;;;6.50;3.47;;;;;;;;;;5055515;28;20220;-89
2022/06/30 01:57:42;;;;;;;3.90;3.53;;;;;;;;;;5055004;28;20201;-90
2022/06/30 02:00:12;;;;;;;3.23;3.03;;;;;;;;;;5055348;28;20245;-90
2022/06/30 02:02:39;;;;;;;3.77;3.47;;;;;;;;;;5055098;28;20189;-90
2022/06/30 02:05:07;;;;;;;3.90;3.60;;;;;;;;;;5055174;28;20202;-91
2022/06/30 02:07:36;;;;;;;4.20;3.80;;;;;;;;;;5055014;28;20194;-90
2022/06/30 02:10:03;;;;;;;5.10;3.77;;;;;;;;;;5055145;28;20288;-90
2022/06/30 02:12:48;;;;;;;3.90;3.60;;;;;;;;;;5055187;28;20582;-91
2022/06/30 02:15:19;;;;;;;3.93;3.63;;;;;;;;;;5054934;28;20182;-91
2022/06/30 02:17:48;;;;;;;4.07;3.67;;;;;;;;;;5055003;28;20201;-91
2022/06/30 02:20:20;;;;;;;3.70;3.40;;;;;;;;;;5055030;28;20194;-90
2022/06/30 02:22:48;;;;;;;4.33;3.80;;;;;;;;;;5054067;28;20202;-91
2022/06/30 02:25:18;;;;;;;4.00;3.63;;;;;;;;;;5054994;28;20740;-93
2022/06/30 02:27:46;;;;;;;5.10;3.70;;;;;;;;;;5054884;28;20633;-93
2022/06/30 02:30:14;;;;;;;4.20;3.70;;;;;;;;;;5054925;28;20198;-92
2022/06/30 02:32:45;;;;;;;6.37;4.30;;;;;;;;;;5054517;28;20194;-92
2022/06/30 02:35:13;;;;;;;7.47;3.50;;;;;;;;;;5054620;28;20263;-93
2022/06/30 02:37:43;;;;;;;10.27;4.17;;;;;;;;;;5054544;28;20251;-93
2022/06/30 02:40:22;;;;;;;28.17;5.50;;;;;;;;;;5054354;28;20248;-93
2022/06/30 02:42:49;;;;;;;3.97;3.67;;;;;;;;;;5052782;28;20237;-93
2022/06/30 02:45:19;;;;;;;5.90;4.10;;;;;;;;;;5054411;28;20190;-93
2022/06/30 02:47:48;;;;;;;5.60;3.97;;;;;;;;;;5054431;28;20202;-93
2022/06/30 02:50:15;;;;;;;4.20;3.80;;;;;;;;;;5054421;28;20581;-94
2022/06/30 02:52:43;;;;;;;5.63;3.60;;;;;;;;;;5054464;28;20236;-93
2022/06/30 02:55:13;;;;;;;4.23;3.77;;;;;;;;;;5054117;28;20225;-94
2022/06/30 02:57:44;;;;;;;4.97;3.67;;;;;;;;;;5053307;28;20285;-93
2022/06/30 03:00:12;;;;;;;3.70;3.30;;;;;;;;;;5053834;28;20193;-92
2022/06/30 03:02:39;;;;;;;4.33;3.93;;;;;;;;;;5054100;28;20267;-91
2022/06/30 03:05:11;;;;;;;3.90;3.60;;;;;;;;;;5053766;28;20198;-91
2022/06/30 03:07:38;;;;;;;5.80;3.97;;;;;;;;;;5054064;28;20205;-92
2022/06/30 03:10:05;;;;;;;3.90;3.57;;;;;;;;;;5054017;28;20633;-91
2022/06/30 03:12:33;;;;;;;4.00;3.70;;;;;;;;;;5053910;28;20259;-91
2022/06/30 03:15:00;;;;;;;3.90;3.60;;;;;;;;;;5053505;28;20222;-91
2022/06/30 03:17:27;;;;;;;5.50;3.60;;;;;;;;;;5053763;28;20658;-92
2022/06/30 03:19:54;;;;;;;3.87;3.43;;;;;;;;;;5053530;28;20255;-92
2022/06/30 03:22:22;;;;;;;4.83;3.93;;;;;;;;;;5053728;28;20197;-91
2022/06/30 03:24:49;;;;;;;4.53;4.00;;;;;;;;;;5053715;28;20198;-91
2022/06/30 03:27:16;;;;;;;7.60;5.27;;;;;;;;;;5053681;28;20621;-92
2022/06/30 03:29:44;;;;;;;3.97;3.50;;;;;;;;;;5053507;28;20194;-91
2022/06/30 03:32:11;;;;;;;6.40;4.23;;;;;;;;;;5053602;28;20663;-91
2022/06/30 03:34:38;;;;;;;4.60;3.87;;;;;;;;;;5053267;28;20225;-91
2022/06/30 03:37:08;;;;;;;4.03;3.63;;;;;;;;;;5053713;28;20194;-91
2022/06/30 03:39:40;;;;;;;3.97;3.67;;;;;;;;;;5053338;28;20194;-92
2022/06/30 03:42:08;;;;;;;3.97;3.67;;;;;;;;;;5053363;28;20287;-91
2022/06/30 03:44:35;;;;;;;4.70;4.30;;;;;;;;;;5050532;28;20204;-85
2022/06/30 03:47:02;;;;;;;7.97;3.83;;;;;;;;;;5051892;28;20624;-83
2022/06/30 03:49:29;;;;;;;7.53;3.87;;;;;;;;;;5052032;28;20362;-84
2022/06/30 03:54:38;;;;;;;6.30;4.07;;;;;;;;;;4971155;28;20237;-84
2022/06/30 03:57:07;;;;;;;4.13;3.70;;;;;;;;;;5052034;28;20201;-83
2022/06/30 03:59:34;;;;;;;5.17;3.87;;;;;;;;;;5051755;28;20629;-83
2022/06/30 04:02:01;;;;;;;3.70;3.40;;;;;;;;;;5052363;28;20255;-84
2022/06/30 04:04:28;;;;;;;4.20;3.80;;;;;;;;;;5052137;28;20263;-83
2022/06/30 04:06:55;;;;;;;4.17;3.87;;;;;;;;;;5052147;28;20259;-83
2022/06/30 04:09:22;;;;;;;5.97;3.50;;;;;;;;;;5051351;28;20194;-84
2022/06/30 04:11:49;;;;;;;10.33;4.27;;;;;;;;;;5051859;28;20198;-83
2022/06/30 04:14:17;;;;;;;8.40;3.70;;;;;;;;;;5051704;28;20321;-83
2022/06/30 04:16:44;;;;;;;4.00;3.67;;;;;;;;;;5051562;28;20193;-83
2022/06/30 04:19:11;;;;;;;7.03;4.20;;;;;;;;;;5051907;28;20654;-84
2022/06/30 04:21:39;;;;;;;5.97;3.60;;;;;;;;;;5051852;28;20197;-88
2022/06/30 04:24:07;;;;;;;4.77;4.37;;;;;;;;;;5055019;28;20198;-96
2022/06/30 04:26:34;;;;;;;4.23;3.93;;;;;;;;;;5053005;28;20223;-96
2022/06/30 04:29:13;;;;;;;4.97;3.90;;;;;;;;;;5053597;28;20613;-96
2022/06/30 04:34:35;;;;;;;4.17;3.87;;;;;;;;;;5007755;28;20222;-95
2022/06/30 04:37:08;;;;;;;4.23;3.83;;;;;;;;;;5052845;28;20198;-96
2022/06/30 04:39:35;;;;;;;4.10;3.80;;;;;;;;;;5053034;28;20208;-96
2022/06/30 04:42:02;;;;;;;4.43;4.03;;;;;;;;;;5052886;28;20714;-96
2022/06/30 04:44:29;;;;;;;4.63;4.20;;;;;;;;;;5053037;28;20318;-96
2022/06/30 04:46:57;;;;;;;4.83;3.90;;;;;;;;;;5052574;28;20636;-96
2022/06/30 04:49:25;;;;;;;4.30;4.00;;;;;;;;;;5052930;28;20667;-96
2022/06/30 04:51:52;;;;;;;5.87;4.07;;;;;;;;;;5053079;28;20255;-96
2022/06/30 04:54:19;;;;;;;7.10;4.90;;;;;;;;;;5052715;28;20218;-96
2022/06/30 04:56:46;;;;;;;6.47;4.83;;;;;;;;;;5053311;28;20206;-96
2022/06/30 04:59:13;;;;;;;7.63;4.03;;;;;;;;;;5054240;28;20198;-96
2022/06/30 05:01:41;;;;;;;4.63;4.07;;;;;;;;;;5054913;28;20289;-96
2022/06/30 05:04:09;;;;;;;6.53;4.77;;;;;;;;;;5057371;28;20662;-96
2022/06/30 05:06:37;;;;;;;4.00;3.70;;;;;;;;;;5055581;28;20205;-96
2022/06/30 05:09:04;;;;;;;6.80;4.60;;;;;;;;;;5054720;28;20202;-96
2022/06/30 05:11:31;;;;;;;4.80;3.87;;;;;;;;;;5056259;28;20323;-96
2022/06/30 05:13:59;;;;;;;5.07;4.67;;;;;;;;;;5057443;28;20225;-96
2022/06/30 05:16:26;;;;;;;5.07;4.13;;;;;;;;;;5056014;28;20206;-96
2022/06/30 05:18:53;;;;;;;5.13;4.17;;;;;;;;;;5056228;28;20204;-96
2022/06/30 05:21:22;;;;;;;5.03;3.70;;;;;;;;;;5058838;28;20263;-96
2022/06/30 05:26:30;;;;;;;6.50;4.00;;;;;;;;;;5057254;28;20190;-96
2022/06/30 05:28:58;;;;;;;7.37;4.33;;;;;;;;;;5057393;28;20194;-96
2022/06/30 05:31:25;;;;;;;6.07;4.57;;;;;;;;;;5057561;28;20205;-96
2022/06/30 05:33:52;;;;;;;7.90;4.27;;;;;;;;;;5060892;28;20271;-96
2022/06/30 05:36:19;;;;;;;8.23;4.23;;;;;;;;;;5058748;28;20206;-96
2022/06/30 05:38:48;;;;;;;5.10;3.93;;;;;;;;;;5059809;28;20629;-96
2022/06/30 05:41:15;;;;;;;3.87;3.50;;;;;;;;;;5061528;28;20255;-96
2022/06/30 05:43:43;;;;;;;6.00;4.73;;;;;;;;;;5059637;28;20232;-96
2022/06/30 05:46:10;;;;;;;4.63;3.37;;;;;;;;;;5065976;28;20202;-96
2022/06/30 05:48:37;;;;;;;4.03;3.73;;;;;;;;;;5062922;28;20194;-96
2022/06/30 05:51:04;;;;;;;4.50;3.80;;;;;;;;;;5059948;28;20218;-96
2022/06/30 05:53:37;;;;;;;3.60;3.30;;;;;;;;;;5056178;28;20225;-96
2022/06/30 05:56:15;;;;;;;5.67;4.53;;;;;;;;;;5059252;28;20190;-96
2022/06/30 05:58:48;;;;;;;10.53;4.03;;;;;;;;;;5084522;22;20329;-96
2022/06/30 06:01:24;;;;;;;5.37;3.60;;;;;;;;;;5055742;28;20236;-96
2022/06/30 06:03:51;;;;;;;5.03;4.13;;;;;;;;;;5055833;28;20198;-96
2022/06/30 06:06:21;;;;;;;6.63;3.80;;;;;;;;;;5056210;28;20670;-96
2022/06/30 06:08:48;;;;;;;3.63;3.33;;;;;;;;;;5055150;28;20682;-96
2022/06/30 06:11:26;;;;;;;12.70;3.90;;;;;;;;;;5055097;28;20202;-96
2022/06/30 06:13:57;;;;;;;4.03;3.13;;;;;;;;;;5055084;28;20558;-96
2022/06/30 06:16:24;;;;;;;7.33;3.50;;;;;;;;;;5056526;28;20206;-96
2022/06/30 06:18:54;;;;;;;10.83;5.07;;;;;;;;;;5055405;28;20267;-96
2022/06/30 06:21:21;;;;;;;4.70;3.40;;;;;;;;;;5056118;28;20198;-96
2022/06/30 06:23:55;;;;;;;5.27;3.67;;;;;;;;;;5055113;28;20251;-96
2022/06/30 06:26:22;;;;;;;4.27;3.40;;;;;;;;;;5054768;28;20194;-96
2022/06/30 06:31:53;;;;;;;6.40;3.93;;;;;;;;;;5055978;28;20262;-96
2022/06/30 06:34:20;;;;;;;4.43;3.27;;;;;;;;;;5124193;22;20225;-96
2022/06/30 06:36:50;;;;;;;3.33;3.00;;;;;;;;;;5072172;28;20189;-96
2022/06/30 06:39:26;;;;;;;3.50;3.13;;;;;;;;;;5074347;28;20205;-96
2022/06/30 06:41:59;;;;;;;6.43;2.97;;;;;;;;;;5074451;28;20200;-95
2022/06/30 06:44:31;;;;;;;8.23;3.43;;;;;;;;;;5074312;28;20274;-95
2022/06/30 06:47:01;;;;;;;9.80;3.37;;;;;;;;;;5074610;28;20200;-96
2022/06/30 06:49:30;;;;;;;8.50;3.47;;;;;;;;;;5074444;28;20205;-96
2022/06/30 06:52:00;;;;;;;7.63;3.57;;;;;;;;;;5074379;28;20204;-96
2022/06/30 06:54:27;;;;;;;4.23;3.83;;;;;;;;;;5074421;28;20224;-95
2022/06/30 06:56:54;;;;;;;7.50;3.10;;;;;;;;;;5075120;28;20193;-95
2022/06/30 06:59:21;;;;;;;3.42;3.13;;;;;;;;;;5074368;28;20250;-96
2022/06/30 07:01:50;;;;;;;5.40;2.83;;;;;;;;;;5074316;28;20259;-95
2022/06/30 07:04:20;;;;;;;5.97;3.17;;;;;;;;;;5074061;28;20563;-96
2022/06/30 07:06:48;;;;;;;7.60;3.20;;;;;;;;;;5074315;28;20564;-96
2022/06/30 07:09:15;;;;;;;7.35;3.42;;;;;;;;;;5200044;22;20188;-95
2022/06/30 07:11:42;;;;;;;4.00;3.35;;;;;;;;;;5070955;28;20249;-96
2022/06/30 07:14:12;;;;;;;3.67;2.70;;;;;;;;;;5074690;28;20197;-95
2022/06/30 07:16:39;;;;;;;5.17;3.20;;;;;;;;;;5073548;28;20197;-96
2022/06/30 07:19:20;;;;;;;3.22;2.85;;;;;;;;;;5074520;28;20193;-95
2022/06/30 07:21:47;;;;;;;5.03;3.00;;;;;;;;;;5073678;28;20197;-94
2022/06/30 07:24:14;;;;;;;2.83;2.63;;;;;;;;;;5074368;28;20736;-95
2022/06/30 07:26:54;;;;;;;4.70;2.70;;;;;;;;;;5073950;28;20246;-96
2022/06/30 07:29:21;;;;;;;3.13;2.83;;;;;;;;;;5073624;28;20204;-95
2022/06/30 07:31:54;;;;;;;6.88;3.40;;;;;;;;;;5073579;28;20254;-95
2022/06/30 07:34:25;;;;;;;5.03;3.40;;;;;;;;;;5073406;28;20217;-95
2022/06/30 07:36:53;;;;;;;4.07;3.08;;;;;;;;;;5073416;28;20200;-96
2022/06/30 07:39:20;;;;;;;6.45;3.92;;;;;;;;;;5073395;28;20246;-93
2022/06/30 07:41:50;;;;;;;6.43;3.63;;;;;;;;;;5073353;28;20625;-94
2022/06/30 07:44:26;;;;;;;3.47;3.17;;;;;;;;;;5072889;28;20193;-96
2022/06/30 07:46:54;;;;;;;3.67;3.38;;;;;;;;;;5073509;28;20567;-94
2022/06/30 07:49:31;;;;;;;9.07;4.45;;;;;;;;;;5074866;28;20197;-94
2022/06/30 07:52:08;;;;;;;5.80;3.60;;;;;;;;;;5073390;28;20205;-94
2022/06/30 07:54:35;;;;;;;4.20;3.85;;;;;;;;;;5073132;28;20653;-96
2022/06/30 07:57:14;;;;;;;8.25;3.58;;;;;;;;;;5073018;28;20589;-95
2022/06/30 07:59:44;;;;;;;6.03;3.38;;;;;;;;;;5073119;28;20200;-95
2022/06/30 08:02:11;;;;;;;3.15;2.72;;;;;;;;;;5073059;28;20244;-94
2022/06/30 08:04:46;;;;;;;8.45;3.83;;;;;;;;;;5072915;28;20638;-94
2022/06/30 08:07:13;;;;;;;2.70;2.50;;;;;;;;;;5073306;28;20201;-95
2022/06/30 08:09:52;;;;;;;3.25;2.95;;;;;;;;;;5072546;28;20790;-96
2022/06/30 08:12:23;;;;;;;3.10;2.80;;;;;;;;;;5073053;28;20264;-95
2022/06/30 08:14:50;;;;;;;3.97;3.10;;;;;;;;;;5072931;28;20243;-95
2022/06/30 08:17:20;;;;;;;3.75;3.20;;;;;;;;;;5073390;28;20197;-95
2022/06/30 08:19:58;;;;;;;4.13;3.28;;;;;;;;;;5074666;28;20670;-95
2022/06/30 08:22:25;;;;;;;5.40;3.38;;;;;;;;;;5073621;28;20638;-95
2022/06/30 08:24:52;;;;;;;5.85;3.58;;;;;;;;;;5073234;28;20201;-95
2022/06/30 08:27:28;;;;;;;4.78;3.30;;;;;;;;;;5072741;28;20211;-94
2022/06/30 08:29:55;;;;;;;6.47;2.85;;;;;;;;;;5072557;28;20203;-95
2022/06/30 08:32:23;;;;;;;5.90;3.30;;;;;;;;;;5073599;28;20205;-93
2022/06/30 08:34:50;;;;;;;3.78;3.13;;;;;;;;;;5072863;28;20251;-93
2022/06/30 08:37:18;;;;;;;3.58;2.88;;;;;;;;;;5073133;28;20254;-96
2022/06/30 08:42:32;;;;;;;4.50;3.33;;;;;;;;;;5073223;28;20274;-95
2022/06/30 08:48:30;;;;;;;5.07;2.97;;;;;;;;;;5072429;28;20172;-94
2022/06/30 08:51:15;;;;;;;4.72;2.88;;;;;;;;;;5072832;28;20201;-94
2022/06/30 08:53:53;;;;;;;4.40;2.65;;;;;;;;;;5072833;28;20258;-95
2022/06/30 08:56:20;;;;;;;2.97;2.67;;;;;;;;;;5075176;28;20277;-95
2022/06/30 08:58:48;;;;;;;6.05;3.13;;;;;;;;;;5076930;28;20193;-96
2022/06/30 09:01:22;;;;;;;3.88;3.00;;;;;;;;;;5076898;28;20262;-95
2022/06/30 09:03:55;;;;;;;4.00;3.40;;;;;;;;;;5080216;28;20193;-96
2022/06/30 09:06:22;;;;;;;4.20;2.72;;;;;;;;;;5080255;28;20207;-95
2022/06/30 09:08:56;;;;;;;4.03;2.22;;;;;;;;;;5076525;28;20658;-95
2022/06/30 09:11:45;;;;;;;3.08;2.78;;;;;;;;;;5075611;28;20290;-95
2022/06/30 09:14:31;;;;;;;10.18;2.50;;;;;;;;;;5076781;28;20223;-95
2022/06/30 09:17:00;;;;;;;2.95;2.75;;;;;;;;;;5080872;28;20227;-96
2022/06/30 09:19:28;;;;;;;4.70;2.63;;;;;;;;;;5078999;28;20263;-95
2022/06/30 09:22:06;;;;;;;6.43;3.25;;;;;;;;;;5076509;28;20630;-93
2022/06/30 09:24:38;;;;;;;4.32;2.78;;;;;;;;;;5080616;28;20266;-96
2022/06/30 09:27:27;;;;;;;5.40;3.75;;;;;;;;;;5088916;28;20262;-96
2022/06/30 09:29:55;;;;;;;3.05;2.80;;;;;;;;;;5083359;28;20224;-96
2022/06/30 09:32:23;;;;;;;3.55;2.45;;;;;;;;;;5081436;28;20201;-96
2022/06/30 09:35:10;;;;;;;5.32;2.85;;;;;;;;;;5080216;28;20661;-96
2022/06/30 09:37:38;;;;;;;5.25;3.00;;;;;;;;;;5081862;28;20596;-95
2022/06/30 09:40:11;;;;;;;4.38;2.88;;;;;;;;;;5081049;28;20196;-96
2022/06/30 09:42:41;;;;;;;8.98;2.55;;;;;;;;;;5078168;28;20220;-95
2022/06/30 09:45:16;;;;;;;5.45;2.70;;;;;;;;;;5079461;28;20197;-96
2022/06/30 09:47:55;;;;;;;4.00;2.95;;;;;;;;;;5082853;28;20603;-95
2022/06/30 09:50:31;;;;;;;8.98;3.00;;;;;;;;;;5082146;28;20566;-95
2022/06/30 09:53:08;;;;;;;4.32;2.60;;;;;;;;;;5079691;28;20207;-95
2022/06/30 09:55:47;;;;;;;3.60;2.83;;;;;;;;;;5080988;28;20216;-96
2022/06/30 09:58:55;;;;;;;4.55;2.50;;;;;;;;;;5088466;28;20249;-96
2022/06/30 10:01:23;;;;;;;6.85;2.67;;;;;;;;;;5086453;28;20201;-96
2022/06/30 10:04:00;;;;;;;7.07;2.30;;;;;;;;;;5089210;28;20238;-96
2022/06/30 10:06:28;;;;;;;2.55;2.30;;;;;;;;;;5086358;28;20204;-96
2022/06/30 10:11:50;;;;;;;4.88;2.40;;;;;;;;;;5159296;22;20241;-96
2022/06/30 10:14:20;;;;;;;2.45;2.25;;;;;;;;;;5069258;28;20186;-96
2022/06/30 10:16:56;;;;;;;4.10;2.40;;;;;;;;;;5066162;28;20213;-96
2022/06/30 10:19:24;;;;;;;3.03;2.72;;;;;;;;;;5064820;28;20205;-96
2022/06/30 10:21:52;;;;;;;5.30;2.80;;;;;;;;;;5050272;28;20197;-96
2022/06/30 10:24:20;;;;;;;4.35;2.80;;;;;;;;;;5060252;28;20659;-93
2022/06/30 10:29:34;;;;;;;3.60;2.70;;;;;;;;;;5056272;28;20180;-94
2022/06/30 10:32:05;;;;;;;2.85;2.65;;;;;;;;;;5057017;28;20289;-93
2022/06/30 10:34:37;;;;;;;2.85;2.50;;;;;;;;;;5059450;28;20206;-94
2022/06/30 10:37:09;;;;;;;5.63;3.10;;;;;;;;;;5056825;28;20301;-94
2022/06/30 10:39:48;;;;;;;9.07;2.88;;;;;;;;;;5055189;28;20220;-94
2022/06/30 10:42:52;;;;;;;5.82;2.90;;;;;;;;;;5057282;28;20639;-94
2022/06/30 10:45:36;;;;;;;5.55;2.70;;;;;;;;;;4974971;28;20785;-93
2022/06/30 10:48:05;;;;;;;6.30;2.50;;;;;;;;;;5050197;28;20208;-95
2022/06/30 10:50:34;;;;;;;3.17;2.40;;;;;;;;;;5056088;28;20209;-94
2022/06/30 10:53:01;;;;;;;3.67;2.65;;;;;;;;;;5058175;28;20209;-95
2022/06/30 10:55:28;;;;;;;3.35;2.72;;;;;;;;;;5056929;28;20222;-94
2022/06/30 10:58:06;;;;;;;3.38;2.22;;;;;;;;;;5057700;28;20194;-94
2022/06/30 11:01:01;;;;;;;4.30;2.95;;;;;;;;;;5061414;28;20280;-94
2022/06/30 11:04:14;;;;;;;5.38;2.72;;;;;;;;;;5039462;28;20208;-94
2022/06/30 11:07:23;;;;;;;3.92;2.60;;;;;;;;;;4977670;28;20189;-94
2022/06/30 11:09:59;;;;;;;3.63;2.50;;;;;;;;;;5028032;28;20206;-94
2022/06/30 11:12:55;;;;;;;3.35;2.80;;;;;;;;;;5059370;28;20304;-93
2022/06/30 11:15:42;;;;;;;9.85;4.03;;;;;;;;;;5060385;28;20209;-95
2022/06/30 11:18:16;;;;;;;4.15;2.50;;;;;;;;;;5057165;28;20209;-93
2022/06/30 11:20:44;;;;;;;3.13;2.53;;;;;;;;;;5060881;28;20630;-95
2022/06/30 11:23:19;;;;;;;3.45;2.60;;;;;;;;;;5060963;28;20569;-95
2022/06/30 11:28:32;;;;;;;6.05;3.25;;;;;;;;;;5058618;28;20673;-94
2022/06/30 11:31:31;;;;;;;2.90;2.35;;;;;;;;;;5061073;28;20658;-95
2022/06/30 11:34:01;;;;;;;3.90;2.97;;;;;;;;;;5059161;28;20232;-94
2022/06/30 11:36:29;;;;;;;2.90;2.50;;;;;;;;;;5062353;28;20221;-94
2022/06/30 11:38:58;;;;;;;2.78;2.42;;;;;;;;;;5060509;28;20213;-95
2022/06/30 11:44:25;;;;;;;3.38;2.75;;;;;;;;;;5065909;28;20239;-95
2022/06/30 11:46:58;;;;;;;3.03;2.42;;;;;;;;;;5061540;28;20220;-94
2022/06/30 11:49:27;;;;;;;3.88;2.72;;;;;;;;;;5058188;28;20221;-94
2022/06/30 11:51:54;;;;;;;4.10;2.50;;;;;;;;;;5057041;28;20194;-94
2022/06/30 11:54:25;;;;;;;3.50;2.10;;;;;;;;;;5057502;28;20210;-94
2022/06/30 11:56:57;;;;;;;5.22;2.60;;;;;;;;;;5057816;28;20217;-94
2022/06/30 12:02:17;;;;;;;2.50;2.30;;;;;;;;;;5203343;22;20227;-96
2022/06/30 12:10:09;;;;;;;5.32;2.22;;;;;;;;;;5704040;22;20236;-96
2022/06/30 12:12:42;;;;;;;5.40;3.08;;;;;;;;;;5093117;28;20199;-96
2022/06/30 12:15:19;;;;;;;4.05;2.58;;;;;;;;;;5091892;28;20177;-96
2022/06/30 12:17:57;;;;;;;6.07;2.78;;;;;;;;;;5092078;28;20231;-96
2022/06/30 12:20:29;;;;;;;3.88;3.03;;;;;;;;;;5095167;28;20181;-96
2022/06/30 12:22:57;;;;;;;3.42;2.63;;;;;;;;;;5095197;28;20177;-96
2022/06/30 12:25:29;;;;;;;3.25;2.50;;;;;;;;;;5088889;28;20223;-96
2022/06/30 12:27:58;;;;;;;5.70;2.45;;;;;;;;;;5349784;22;20279;-96
2022/06/30 12:30:32;;;;;;;3.55;2.47;;;;;;;;;;5096665;28;20249;-96
2022/06/30 12:33:07;;;;;;;2.53;2.30;;;;;;;;;;5093667;28;20189;-96
2022/06/30 13:40:22;;;;;;;3.10;2.60;;;;;;;;;;1698644;23;20582;-97
2022/06/30 13:42:49;;;;;;;4.57;3.33;;;;;;;;;;5037101;28;20214;-95
2022/06/30 13:45:20;;;;;;;3.22;2.75;;;;;;;;;;5041120;28;20202;-95
2022/06/30 13:47:47;;;;;;;3.90;2.80;;;;;;;;;;5038940;28;20225;-95
2022/06/30 13:50:23;;;;;;;4.05;2.83;;;;;;;;;;5036903;28;20195;-96
2022/06/30 13:55:27;;;;;;;2.75;2.35;;;;;;;;;;5479791;22;20280;-96
2022/06/30 13:57:54;;;;;;;3.88;2.67;;;;;;;;;;4996212;28;20224;-95
2022/06/30 14:00:21;;;;;;;7.30;3.05;;;;;;;;;;4999788;28;20200;-96
2022/06/30 14:02:49;;;;;;;2.70;2.50;;;;;;;;;;4999976;28;20686;-95
2022/06/30 14:05:16;;;;;;;2.72;2.53;;;;;;;;;;4989399;28;20200;-95
2022/06/30 14:07:47;;;;;;;4.57;2.53;;;;;;;;;;4998645;28;20200;-94
2022/06/30 14:10:17;;;;;;;9.13;2.72;;;;;;;;;;5000718;28;20212;-96
2022/06/30 14:12:46;;;;;;;4.97;2.55;;;;;;;;;;5000717;28;20200;-95
2022/06/30 14:15:17;;;;;;;2.72;2.05;;;;;;;;;;5003772;28;20223;-94
2022/06/30 14:17:45;;;;;;;6.88;2.60;;;;;;;;;;4993391;28;20225;-95
2022/06/30 14:20:13;;;;;;;5.72;2.97;;;;;;;;;;5002352;28;20303;-96
2022/06/30 14:22:41;;;;;;;6.95;5.82;;;;;;;;;;4984510;28;20209;-95
2022/06/30 14:25:12;;;;;;;29.13;26.27;;;;;;;;;;4980835;28;20206;-95
2022/06/30 14:27:43;;;;;;;18.38;11.23;;;;;;;;;;4984014;28;20220;-95
2022/06/30 14:30:14;;;;;;;27.00;24.27;;;;;;;;;;4982931;28;20280;-95
2022/06/30 14:32:41;;;;;;;9.63;4.07;;;;;;;;;;4981691;28;20284;-95
2022/06/30 14:35:10;;;;;;;4.78;3.00;;;;;;;;;;4975537;28;20278;-95
2022/06/30 14:37:38;;;;;;;10.45;9.27;;;;;;;;;;4979846;28;20232;-95
2022/06/30 14:40:10;;;;;;;16.65;14.95;;;;;;;;;;4981278;28;20209;-95
2022/06/30 14:42:47;;;;;;;5.57;5.15;;;;;;;;;;4981130;28;20209;-95
2022/06/30 14:45:18;;;;;;;4.10;3.45;;;;;;;;;;4984267;28;20224;-96
2022/06/30 14:47:46;;;;;;;4.47;2.83;;;;;;;;;;4981278;28;20201;-94
2022/06/30 14:50:14;;;;;;;3.92;2.67;;;;;;;;;;4979316;28;20211;-95
2022/06/30 14:52:42;;;;;;;2.80;2.40;;;;;;;;;;4979765;28;20205;-96
2022/06/30 14:55:10;;;;;;;5.88;2.63;;;;;;;;;;4970755;28;20233;-95
2022/06/30 14:57:38;;;;;;;6.18;4.35;;;;;;;;;;4982816;28;20705;-96
2022/06/30 15:00:07;;;;;;;11.18;10.02;;;;;;;;;;4980944;28;20207;-95
2022/06/30 15:02:45;;;;;;;3.58;3.13;;;;;;;;;;4981930;28;20242;-95
2022/06/30 15:05:14;;;;;;;15.60;14.27;;;;;;;;;;4979421;28;20258;-96
2022/06/30 15:07:42;;;;;;;16.55;11.00;;;;;;;;;;4981722;28;20201;-95
2022/06/30 15:10:18;;;;;;;7.78;3.35;;;;;;;;;;4982245;28;20204;-96
2022/06/30 15:12:46;;;;;;;4.35;2.28;;;;;;;;;;4981287;28;20779;-96
2022/06/30 15:15:16;;;;;;;3.03;2.35;;;;;;;;;;4980402;28;20263;-96
2022/06/30 15:17:45;;;;;;;5.13;2.65;;;;;;;;;;4981862;28;20235;-96
2022/06/30 15:20:16;;;;;;;6.85;2.75;;;;;;;;;;4981289;28;20209;-96
2022/06/30 15:25:31;;;;;;;3.80;2.50;;;;;;;;;;4980855;28;20208;-95
2022/06/30 15:27:58;;;;;;;11.63;6.10;;;;;;;;;;4978934;28;20201;-96
2022/06/30 15:30:28;;;;;;;5.72;5.20;;;;;;;;;;4977204;28;20204;-96
2022/06/30 15:32:59;;;;;;;8.32;4.13;;;;;;;;;;4975003;28;20203;-96
2022/06/30 15:35:36;;;;;;;3.00;2.30;;;;;;;;;;4976015;28;20205;-95
2022/06/30 15:38:03;;;;;;;10.10;2.70;;;;;;;;;;4976117;28;20233;-96
2022/06/30 15:40:34;;;;;;;5.78;2.65;;;;;;;;;;4976403;28;20639;-96
2022/06/30 15:43:01;;;;;;;3.10;2.70;;;;;;;;;;4979001;28;20224;-96
2022/06/30 15:45:36;;;;;;;4.55;3.58;;;;;;;;;;4976255;28;20201;-95
2022/06/30 15:48:17;;;;;;;6.55;3.15;;;;;;;;;;4977862;28;20211;-95
2022/06/30 15:50:47;;;;;;;6.35;3.25;;;;;;;;;;4979174;28;20200;-96
2022/06/30 15:53:16;;;;;;;12.57;5.38;;;;;;;;;;4980518;28;20615;-96
2022/06/30 15:55:43;;;;;;;8.02;5.47;;;;;;;;;;4981238;28;20237;-96
2022/06/30 15:58:10;;;;;;;5.80;3.50;;;;;;;;;;4987156;28;20225;-96
2022/06/30 16:00:39;;;;;;;7.70;5.38;;;;;;;;;;4983851;28;20302;-96
2022/06/30 16:03:07;;;;;;;7.13;5.65;;;;;;;;;;4986443;28;20204;-96
2022/06/30 16:05:39;;;;;;;10.40;5.88;;;;;;;;;;4984420;28;20207;-96
2022/06/30 16:08:06;;;;;;;17.52;12.18;;;;;;;;;;4982855;28;20209;-96
2022/06/30 16:10:33;;;;;;;8.23;4.45;;;;;;;;;;4981986;28;20209;-96
2022/06/30 16:13:01;;;;;;;6.88;6.20;;;;;;;;;;4979028;28;20219;-96
2022/06/30 16:15:37;;;;;;;5.05;4.50;;;;;;;;;;4975329;28;20570;-96
2022/06/30 16:18:05;;;;;;;2.58;2.28;;;;;;;;;;4978085;28;20228;-96
2022/06/30 16:20:32;;;;;;;3.05;2.55;;;;;;;;;;4979101;28;20309;-96
2022/06/30 16:23:03;;;;;;;4.80;3.15;;;;;;;;;;4975771;28;20263;-96
2022/06/30 16:25:33;;;;;;;3.92;3.33;;;;;;;;;;4974475;28;20208;-96
2022/06/30 16:28:01;;;;;;;3.25;2.55;;;;;;;;;;4975268;28;20201;-95
2022/06/30 16:30:37;;;;;;;5.70;3.00;;;;;;;;;;4972526;28;20212;-96
2022/06/30 16:33:04;;;;;;;7.53;2.75;;;;;;;;;;4973257;28;20205;-96
2022/06/30 16:35:32;;;;;;;3.05;2.80;;;;;;;;;;4972629;28;20570;-96
2022/06/30 16:37:59;;;;;;;7.75;3.35;;;;;;;;;;4972849;28;20308;-96
2022/06/30 16:40:28;;;;;;;3.88;2.08;;;;;;;;;;4975141;28;20296;-96
2022/06/30 16:42:56;;;;;;;3.50;2.85;;;;;;;;;;4973685;28;20209;-96
2022/06/30 16:45:29;;;;;;;3.53;2.38;;;;;;;;;;4975595;28;20208;-95
2022/06/30 16:48:03;;;;;;;4.53;2.97;;;;;;;;;;4972522;28;20677;-96
2022/06/30 16:50:30;;;;;;;6.28;3.70;;;;;;;;;;4971900;28;20255;-96
2022/06/30 16:52:59;;;;;;;34.85;21.33;;;;;;;;;;4971625;28;20735;-96